createdAt,value
2023-03-28T00:01:41.269Z,0.73
2023-03-28T00:04:13.000Z,1.53
2023-03-28T00:06:47.378Z,0.93
2023-03-28T00:09:19.460Z,0.70
2023-03-28T00:11:50.787Z,1.17
2023-03-28T00:14:22.148Z,0.73
2023-03-28T00:16:53.570Z,2.00
2023-03-28T00:19:24.915Z,0.90
2023-03-28T00:21:57.476Z,0.93
2023-03-28T00:24:28.819Z,1.70
2023-03-28T00:27:00.661Z,0.70
2023-03-28T00:29:32.328Z,0.90
2023-03-28T00:32:03.884Z,0.73
2023-03-28T00:34:35.207Z,0.90
2023-03-28T00:37:06.636Z,1.00
2023-03-28T00:39:39.951Z,1.00
2023-03-28T00:42:14.172Z,0.97
2023-03-28T00:44:53.511Z,1.20
2023-03-28T00:47:27.725Z,0.80
2023-03-28T00:50:37.339Z,1.80
2023-03-28T00:53:20.020Z,1.00
2023-03-28T00:56:08.443Z,1.20
2023-03-28T00:58:42.512Z,1.40
2023-03-28T01:01:15.921Z,0.97
2023-03-28T01:04:02.102Z,0.73
2023-03-28T01:06:37.784Z,0.90
2023-03-28T01:09:09.291Z,1.50
2023-03-28T01:15:26.538Z,0.87
2023-03-28T01:18:03.068Z,1.40
2023-03-28T01:21:05.213Z,0.90
2023-03-28T01:24:11.178Z,0.57
2023-03-28T01:26:52.914Z,0.80
2023-03-28T01:29:34.723Z,1.00
2023-03-28T01:32:28.627Z,0.83
2023-03-28T01:35:44.177Z,1.10
2023-03-28T01:38:44.803Z,0.90
2023-03-28T01:41:29.357Z,1.57
2023-03-28T01:44:33.061Z,1.00
2023-03-28T01:47:13.208Z,1.20
2023-03-28T01:50:23.258Z,0.80
2023-03-28T01:53:08.474Z,1.00
2023-03-28T01:56:01.890Z,1.60
2023-03-28T01:58:46.511Z,1.27
2023-03-28T02:01:25.039Z,1.60
2023-03-28T02:04:03.330Z,0.80
2023-03-28T02:06:38.462Z,1.10
2023-03-28T02:09:11.412Z,0.90
2023-03-28T02:11:44.270Z,0.83
2023-03-28T02:14:21.311Z,0.80
2023-03-28T02:17:00.409Z,0.90
2023-03-28T02:19:34.988Z,1.97
2023-03-28T02:22:09.076Z,0.77
2023-03-28T02:24:40.675Z,0.80
2023-03-28T02:27:12.135Z,0.80
2023-03-28T02:29:43.436Z,0.80
2023-03-28T02:32:16.868Z,0.90
2023-03-28T02:34:51.415Z,0.80
2023-03-28T02:38:00.488Z,0.63
2023-03-28T02:40:46.516Z,0.70
2023-03-28T02:43:26.606Z,1.00
2023-03-28T02:46:29.200Z,0.83
2023-03-28T02:49:47.190Z,1.00
2023-03-28T02:52:50.513Z,1.17
2023-03-28T02:55:44.744Z,0.80
2023-03-28T02:58:37.629Z,1.00
2023-03-28T03:01:10.706Z,1.50
2023-03-28T03:03:43.914Z,0.90
2023-03-28T03:06:17.853Z,0.67
2023-03-28T03:08:49.427Z,1.67
2023-03-28T03:11:21.342Z,1.00
2023-03-28T03:13:52.673Z,0.73
2023-03-28T03:16:24.055Z,1.20
2023-03-28T03:18:56.937Z,0.80
2023-03-28T03:21:28.270Z,0.70
2023-03-28T03:23:59.571Z,0.80
2023-03-28T03:26:31.135Z,1.20
2023-03-28T03:29:03.015Z,0.97
2023-03-28T03:31:34.569Z,0.90
2023-03-28T03:34:07.496Z,0.73
2023-03-28T03:36:40.617Z,1.40
2023-03-28T03:39:12.098Z,1.40
2023-03-28T03:41:43.508Z,0.90
2023-03-28T03:44:14.998Z,0.83
2023-03-28T03:46:46.474Z,1.23
2023-03-28T03:49:17.966Z,0.87
2023-03-28T03:51:49.289Z,0.93
2023-03-28T03:54:20.671Z,1.20
2023-03-28T03:56:52.089Z,0.80
2023-03-28T03:59:23.596Z,1.07
2023-03-28T04:01:55.854Z,1.00
2023-03-28T04:04:28.074Z,1.33
2023-03-28T04:06:59.652Z,0.70
2023-03-28T04:09:31.390Z,1.27
2023-03-28T04:12:03.042Z,0.80
2023-03-28T04:14:34.368Z,1.40
2023-03-28T04:17:06.875Z,1.00
2023-03-28T04:19:40.598Z,0.83
2023-03-28T04:22:12.961Z,0.80
2023-03-28T04:24:45.004Z,1.10
2023-03-28T04:27:17.663Z,0.80
2023-03-28T04:29:49.195Z,1.13
2023-03-28T04:32:21.276Z,1.40
2023-03-28T04:34:52.775Z,1.13
2023-03-28T04:37:24.265Z,1.43
2023-03-28T04:39:55.754Z,1.10
2023-03-28T04:42:27.600Z,1.93
2023-03-28T04:44:59.174Z,1.30
2023-03-28T04:47:31.175Z,0.97
2023-03-28T04:50:02.513Z,1.00
2023-03-28T04:52:34.881Z,1.03
2023-03-28T04:55:07.837Z,1.10
2023-03-28T04:57:39.559Z,1.43
2023-03-28T05:00:16.703Z,1.53
2023-03-28T05:02:48.508Z,1.27
2023-03-28T05:05:20.658Z,1.17
2023-03-28T05:07:52.072Z,1.00
2023-03-28T05:10:23.660Z,1.93
2023-03-28T05:12:55.254Z,0.80
2023-03-28T05:15:26.703Z,1.27
2023-03-28T05:17:59.546Z,1.50
2023-03-28T05:20:31.863Z,1.40
2023-03-28T05:23:05.938Z,1.20
2023-03-28T05:25:37.588Z,1.10
2023-03-28T05:28:09.153Z,0.97
2023-03-28T05:30:40.573Z,1.77
2023-03-28T05:33:12.216Z,1.57
2023-03-28T05:35:44.150Z,1.43
2023-03-28T05:38:16.330Z,1.77
2023-03-28T05:40:47.836Z,1.40
2023-03-28T05:43:20.038Z,1.47
2023-03-28T05:45:51.583Z,1.50
2023-03-28T05:48:22.987Z,1.33
2023-03-28T05:50:54.434Z,1.50
2023-03-28T05:53:26.072Z,1.43
2023-03-28T05:55:57.402Z,1.27
2023-03-28T05:58:29.512Z,1.93
2023-03-28T06:01:02.936Z,2.00
2023-03-28T06:03:39.692Z,1.47
2023-03-28T06:06:11.269Z,1.30
2023-03-28T06:08:42.799Z,1.93
2023-03-28T06:11:14.586Z,1.83
2023-03-28T06:13:46.012Z,1.90
2023-03-28T06:16:17.553Z,1.70
2023-03-28T06:18:49.004Z,1.70
2023-03-28T06:21:21.070Z,2.53
2023-03-28T06:23:52.813Z,2.30
2023-03-28T06:26:24.258Z,2.10
2023-03-28T06:28:55.791Z,1.50
2023-03-28T06:31:28.324Z,1.73
2023-03-28T06:34:00.210Z,1.60
2023-03-28T06:36:31.658Z,2.50
2023-03-28T06:39:03.851Z,2.53
2023-03-28T06:41:35.300Z,1.73
2023-03-28T06:44:06.879Z,1.87
2023-03-28T06:46:39.117Z,2.20
2023-03-28T06:49:10.887Z,2.00
2023-03-28T06:51:42.357Z,1.47
2023-03-28T06:54:14.746Z,2.23
2023-03-28T06:56:46.155Z,1.50
2023-03-28T06:59:17.768Z,2.00
2023-03-28T07:01:49.165Z,1.90
2023-03-28T07:04:20.603Z,2.03
2023-03-28T07:06:51.998Z,1.47
2023-03-28T07:09:23.365Z,1.60
2023-03-28T07:11:54.722Z,1.50
2023-03-28T07:14:26.605Z,1.50
2023-03-28T07:16:58.238Z,2.17
2023-03-28T07:19:30.027Z,1.70
2023-03-28T07:22:01.692Z,1.50
2023-03-28T07:24:33.208Z,1.50
2023-03-28T07:27:14.739Z,1.63
2023-03-28T07:29:48.175Z,2.20
2023-03-28T07:32:19.706Z,2.23
2023-03-28T07:34:51.336Z,1.50
2023-03-28T07:37:23.247Z,1.40
2023-03-28T07:39:56.449Z,1.60
2023-03-28T07:42:27.932Z,1.97
2023-03-28T07:45:00.689Z,1.67
2023-03-28T07:47:32.136Z,1.83
2023-03-28T07:50:04.224Z,1.93
2023-03-28T07:52:35.705Z,1.77
2023-03-28T07:55:07.487Z,1.90
2023-03-28T07:57:39.399Z,1.40
2023-03-28T08:00:15.599Z,1.30
2023-03-28T08:02:47.035Z,1.20
2023-03-28T08:05:18.692Z,1.80
2023-03-28T08:07:53.763Z,1.80
2023-03-28T08:10:25.431Z,1.50
2023-03-28T08:12:57.896Z,1.87
2023-03-28T08:15:29.430Z,1.40
2023-03-28T08:18:00.847Z,1.53
2023-03-28T08:20:33.356Z,1.00
2023-03-28T08:23:04.830Z,1.10
2023-03-28T08:25:36.383Z,1.30
2023-03-28T08:28:08.819Z,1.53
2023-03-28T08:30:40.339Z,1.97
2023-03-28T08:33:12.297Z,1.27
2023-03-28T08:35:43.780Z,1.53
2023-03-28T08:38:15.273Z,1.00
2023-03-28T08:41:01.041Z,1.40
2023-03-28T08:43:53.400Z,1.42
2023-03-28T08:46:28.388Z,1.40
2023-03-28T08:49:04.956Z,1.27
2023-03-28T08:51:40.872Z,1.43
2023-03-28T08:54:23.526Z,1.40
2023-03-28T08:57:01.788Z,1.83
2023-03-28T09:00:00.991Z,1.67
2023-03-28T09:02:32.628Z,2.03
2023-03-28T09:05:22.032Z,1.70
2023-03-28T09:07:55.646Z,1.20
2023-03-28T09:10:43.501Z,1.30
2023-03-28T09:13:33.550Z,1.77
2023-03-28T09:16:18.966Z,1.30
2023-03-28T09:19:15.474Z,2.33
2023-03-28T09:22:15.213Z,1.63
2023-03-28T09:25:07.227Z,1.30
2023-03-28T09:27:50.981Z,1.10
2023-03-28T09:30:27.296Z,1.70
2023-03-28T09:33:03.119Z,1.20
2023-03-28T09:35:34.575Z,1.05
2023-03-28T09:38:16.060Z,1.87
2023-03-28T09:40:49.330Z,1.00
2023-03-28T09:43:46.316Z,1.90
2023-03-28T09:46:44.988Z,1.30
2023-03-28T09:49:23.016Z,1.00
2023-03-28T09:51:56.582Z,2.37
2023-03-28T09:54:35.409Z,1.53
2023-03-28T09:57:06.888Z,0.90
2023-03-28T09:59:38.485Z,1.20
2023-03-28T10:02:32.205Z,1.03
2023-03-28T10:05:06.251Z,1.60
2023-03-28T10:07:44.075Z,1.07
2023-03-28T10:10:24.759Z,1.40
2023-03-28T10:12:59.634Z,1.43
2023-03-28T10:15:45.820Z,2.03
2023-03-28T10:18:20.859Z,1.15
2023-03-28T10:20:52.440Z,1.27
2023-03-28T10:23:25.066Z,1.10
2023-03-28T10:26:02.755Z,1.40
2023-03-28T10:28:36.768Z,1.60
2023-03-28T10:31:21.984Z,1.20
2023-03-28T10:33:53.513Z,1.30
2023-03-28T10:36:32.578Z,1.30
2023-03-28T10:39:25.189Z,2.03
2023-03-28T10:42:00.929Z,2.10
2023-03-28T10:44:38.032Z,1.88
2023-03-28T10:47:19.179Z,1.17
2023-03-28T10:49:55.502Z,1.63
2023-03-28T10:52:53.709Z,1.13
2023-03-28T10:55:37.605Z,3.00
2023-03-28T10:58:26.709Z,1.20
2023-03-28T11:01:05.755Z,1.50
2023-03-28T11:04:02.444Z,1.60
2023-03-28T11:06:37.580Z,1.60
2023-03-28T11:09:25.042Z,2.07
2023-03-28T11:12:43.842Z,0.90
2023-03-28T11:15:44.938Z,1.27
2023-03-28T11:18:35.297Z,1.50
2023-03-28T11:21:21.032Z,1.97
2023-03-28T11:24:04.423Z,2.67
2023-03-28T11:26:48.492Z,0.80
2023-03-28T11:29:43.092Z,1.20
2023-03-28T11:32:39.436Z,1.50
2023-03-28T11:35:17.084Z,1.30
2023-03-28T11:38:04.485Z,1.30
2023-03-28T11:40:52.576Z,1.03
2023-03-28T11:43:34.002Z,1.47
2023-03-28T11:46:10.110Z,1.33
2023-03-28T11:49:16.063Z,1.70
2023-03-28T11:51:47.435Z,1.47
2023-03-28T11:54:35.396Z,1.30
2023-03-28T11:57:11.647Z,1.13
2023-03-28T12:02:30.582Z,1.43
2023-03-28T12:05:40.075Z,2.03
2023-03-28T12:08:24.311Z,2.20
2023-03-28T12:11:02.834Z,1.60
2023-03-28T12:14:23.596Z,1.73
2023-03-28T12:16:58.750Z,2.17
2023-03-28T12:19:40.905Z,1.33
2023-03-28T12:22:40.318Z,1.60
2023-03-28T12:25:22.927Z,1.57
2023-03-28T12:28:33.515Z,1.30
2023-03-28T12:31:13.626Z,1.10
2023-03-28T12:33:58.825Z,1.70
2023-03-28T12:36:44.755Z,1.63
2023-03-28T12:39:35.376Z,1.90
2023-03-28T12:42:11.973Z,2.03
2023-03-28T12:44:59.422Z,1.00
2023-03-28T12:47:37.144Z,1.40
2023-03-28T12:50:18.006Z,2.00
2023-03-28T12:52:49.741Z,1.47
2023-03-28T12:55:24.051Z,1.70
2023-03-28T12:58:26.883Z,1.40
2023-03-28T13:01:17.939Z,1.70
2023-03-28T13:04:23.133Z,2.20
2023-03-28T13:07:23.367Z,1.50
2023-03-28T13:10:06.258Z,2.63
2023-03-28T13:12:50.741Z,1.97
2023-03-28T13:15:32.873Z,2.23
2023-03-28T13:18:22.118Z,1.60
2023-03-28T13:20:54.458Z,1.77
2023-03-28T13:23:33.165Z,1.40
2023-03-28T13:26:06.614Z,2.00
2023-03-28T13:28:51.517Z,2.07
2023-03-28T13:31:26.744Z,2.23
2023-03-28T13:34:02.348Z,1.40
2023-03-28T13:36:35.380Z,2.70
2023-03-28T13:39:24.964Z,1.83
2023-03-28T13:41:58.377Z,1.23
2023-03-28T13:44:39.702Z,1.97
2023-03-28T13:47:17.744Z,1.67
2023-03-28T13:50:01.739Z,1.40
2023-03-28T13:52:33.388Z,1.90
2023-03-28T13:55:17.497Z,1.57
2023-03-28T13:57:50.319Z,1.53
2023-03-28T14:00:25.922Z,1.50
2023-03-28T14:03:03.758Z,1.85
2023-03-28T14:05:44.028Z,1.43
2023-03-28T14:08:15.656Z,2.27
2023-03-28T14:10:47.902Z,1.57
2023-03-28T14:13:23.037Z,1.73
2023-03-28T14:15:55.828Z,1.60
2023-03-28T14:18:40.933Z,1.93
2023-03-28T14:21:12.428Z,2.17
2023-03-28T14:24:06.276Z,1.60
2023-03-28T14:26:38.025Z,2.07
2023-03-28T14:29:15.325Z,1.73
2023-03-28T14:31:48.472Z,1.97
2023-03-28T14:34:32.049Z,2.23
2023-03-28T14:37:16.612Z,1.63
2023-03-28T14:39:48.861Z,1.60
2023-03-28T14:42:22.533Z,1.23
2023-03-28T14:44:54.726Z,1.70
2023-03-28T14:47:30.817Z,1.97
2023-03-28T14:52:38.209Z,1.93
2023-03-28T14:55:20.311Z,1.33
2023-03-28T14:57:54.026Z,1.40
2023-03-28T15:00:36.060Z,1.37
2023-03-28T15:03:14.936Z,2.03
2023-03-28T15:05:49.940Z,1.80
2023-03-28T15:08:36.775Z,1.40
2023-03-28T15:11:15.552Z,1.60
2023-03-28T15:13:57.949Z,1.93
2023-03-28T15:16:32.237Z,1.60
2023-03-28T15:19:09.110Z,1.63
2023-03-28T15:21:42.311Z,1.93
2023-03-28T15:24:18.528Z,1.70
2023-03-28T15:29:25.689Z,1.80
2023-03-28T15:32:03.864Z,1.87
2023-03-28T15:34:56.420Z,1.50
2023-03-28T15:37:27.837Z,1.70
2023-03-28T15:40:32.311Z,1.77
2023-03-28T15:43:05.230Z,1.60
2023-03-28T15:45:41.419Z,2.47
2023-03-28T15:50:53.638Z,1.33
2023-03-28T15:53:29.861Z,1.93
2023-03-28T15:58:43.621Z,2.10
2023-03-28T16:01:22.126Z,2.17
2023-03-28T16:04:26.267Z,2.23
2023-03-28T16:07:11.939Z,1.70
2023-03-28T16:09:43.699Z,1.40
2023-03-28T16:12:15.450Z,2.10
2023-03-28T16:14:53.006Z,1.50
2023-03-28T16:17:29.103Z,2.07
2023-03-28T16:22:32.161Z,1.43
2023-03-28T16:25:03.593Z,1.10
2023-03-28T16:27:37.652Z,1.87
2023-03-28T16:30:37.344Z,2.50
2023-03-28T16:33:08.941Z,2.63
2023-03-28T16:35:40.591Z,1.53
2023-03-28T16:38:11.973Z,1.73
2023-03-28T16:40:45.253Z,1.43
2023-03-28T16:43:17.263Z,2.23
2023-03-28T16:45:50.824Z,2.20
2023-03-28T16:48:22.207Z,1.73
2023-03-28T16:50:58.534Z,1.70
2023-03-28T16:53:30.475Z,2.03
2023-03-28T16:56:02.804Z,1.83
2023-03-28T16:58:34.774Z,2.10
2023-03-28T17:01:09.366Z,2.10
2023-03-28T17:03:41.225Z,1.43
2023-03-28T17:06:12.893Z,1.83
2023-03-28T17:08:44.367Z,2.50
2023-03-28T17:11:16.198Z,2.13
2023-03-28T17:13:51.546Z,3.10
2023-03-28T17:16:23.537Z,2.70
2023-03-28T17:18:54.924Z,2.53
2023-03-28T17:21:26.670Z,2.70
2023-03-28T17:23:58.017Z,1.97
2023-03-28T17:26:29.401Z,2.33
2023-03-28T17:29:01.100Z,2.37
2023-03-28T17:31:32.550Z,2.40
2023-03-28T17:34:04.312Z,2.53
2023-03-28T17:36:36.437Z,2.50
2023-03-28T17:39:09.087Z,3.73
2023-03-28T17:41:41.481Z,3.07
2023-03-28T17:44:12.809Z,3.20
2023-03-28T17:46:45.536Z,3.87
2023-03-28T17:49:18.302Z,2.80
2023-03-28T17:51:50.120Z,3.00
2023-03-28T17:54:22.355Z,4.07
2023-03-28T17:56:54.108Z,2.53
2023-03-28T17:59:25.474Z,3.97
2023-03-28T18:01:56.909Z,4.23
2023-03-28T18:04:28.286Z,4.03
2023-03-28T18:06:59.689Z,2.50
2023-03-28T18:09:32.069Z,2.30
2023-03-28T18:12:03.535Z,2.60
2023-03-28T18:14:35.005Z,5.70
2023-03-28T18:17:06.476Z,7.77
2023-03-28T18:19:37.856Z,4.87
2023-03-28T18:22:09.590Z,3.93
2023-03-28T18:24:41.247Z,2.70
2023-03-28T18:27:12.675Z,3.00
2023-03-28T18:29:43.984Z,3.97
2023-03-28T18:32:16.223Z,4.03
2023-03-28T18:34:48.618Z,3.40
2023-03-28T18:37:20.180Z,3.60
2023-03-28T18:39:54.568Z,3.13
2023-03-28T18:42:26.422Z,4.67
2023-03-28T18:44:57.935Z,5.00
2023-03-28T18:47:29.341Z,6.67
2023-03-28T18:50:00.751Z,5.20
2023-03-28T18:52:32.601Z,4.00
2023-03-28T18:55:07.341Z,3.10
2023-03-28T18:57:38.762Z,3.37
2023-03-28T19:00:18.253Z,3.53
2023-03-28T19:02:50.021Z,2.87
2023-03-28T19:05:22.037Z,3.70
2023-03-28T19:07:53.366Z,2.93
2023-03-28T19:10:25.876Z,3.40
2023-03-28T19:12:57.672Z,4.53
2023-03-28T19:15:29.293Z,3.40
2023-03-28T19:18:02.900Z,2.67
2023-03-28T19:20:34.769Z,3.10
2023-03-28T19:23:06.295Z,2.60
2023-03-28T19:25:38.033Z,2.63
2023-03-28T19:28:09.461Z,3.20
2023-03-28T19:30:41.117Z,5.23
2023-03-28T19:33:12.677Z,5.17
2023-03-28T19:35:44.427Z,4.77
2023-03-28T19:38:15.793Z,2.87
2023-03-28T19:40:47.353Z,2.43
2023-03-28T19:43:21.866Z,2.23
2023-03-28T19:45:54.380Z,2.23
2023-03-28T19:48:26.183Z,2.43
2023-03-28T19:50:57.735Z,2.30
2023-03-28T19:53:29.301Z,2.70
2023-03-28T19:56:01.105Z,1.97
2023-03-28T19:58:33.061Z,2.43
2023-03-28T20:01:04.786Z,3.07
2023-03-28T20:03:36.200Z,1.93
2023-03-28T20:06:10.963Z,1.90
2023-03-28T20:08:42.664Z,1.90
2023-03-28T20:11:15.064Z,2.00
2023-03-28T20:13:46.484Z,1.97
2023-03-28T20:16:17.897Z,2.77
2023-03-28T20:18:49.336Z,2.27
2023-03-28T20:21:20.668Z,3.03
2023-03-28T20:23:52.632Z,2.30
2023-03-28T20:26:26.999Z,2.73
2023-03-28T20:28:59.422Z,2.00
2023-03-28T20:31:31.067Z,2.27
2023-03-28T20:34:02.472Z,2.93
2023-03-28T20:36:33.874Z,1.97
2023-03-28T20:39:05.245Z,1.70
2023-03-28T20:41:37.561Z,2.13
2023-03-28T20:44:09.692Z,2.00
2023-03-28T20:46:41.513Z,2.30
2023-03-28T20:49:12.869Z,2.27
2023-03-28T20:51:44.356Z,2.33
2023-03-28T20:54:16.681Z,2.23
2023-03-28T20:56:49.461Z,1.83
2023-03-28T20:59:22.573Z,2.33
2023-03-28T21:01:54.579Z,1.97
2023-03-28T21:04:27.902Z,2.10
2023-03-28T21:07:02.018Z,2.30
2023-03-28T21:09:33.343Z,2.00
2023-03-28T21:12:05.072Z,2.50
2023-03-28T21:14:36.634Z,2.97
2023-03-28T21:17:08.621Z,2.13
2023-03-28T21:19:39.944Z,1.60
2023-03-28T21:22:11.511Z,2.33
2023-03-28T21:24:42.879Z,1.83
2023-03-28T21:27:18.142Z,1.47
2023-03-28T21:29:49.513Z,1.80
2023-03-28T21:32:20.865Z,1.43
2023-03-28T21:34:56.302Z,1.73
2023-03-28T21:37:28.179Z,1.40
2023-03-28T21:39:59.472Z,1.37
2023-03-28T21:42:30.853Z,1.80
2023-03-28T21:45:02.225Z,2.00
2023-03-28T21:47:33.682Z,1.20
2023-03-28T21:50:07.331Z,1.40
2023-03-28T21:52:38.837Z,1.40
2023-03-28T21:55:10.394Z,1.63
2023-03-28T21:57:41.737Z,1.63
2023-03-28T22:00:16.571Z,1.53
2023-03-28T22:02:48.016Z,2.40
2023-03-28T22:05:28.527Z,2.37
2023-03-28T22:08:01.715Z,1.87
2023-03-28T22:10:33.918Z,1.90
2023-03-28T22:13:06.681Z,1.90
2023-03-28T22:15:38.040Z,2.07
2023-03-28T22:18:09.738Z,2.30
2023-03-28T22:20:43.501Z,1.83
2023-03-28T22:23:14.940Z,2.20
2023-03-28T22:25:46.602Z,1.70
2023-03-28T22:28:18.805Z,2.00
2023-03-28T22:30:53.227Z,1.40
2023-03-28T22:33:25.286Z,2.50
2023-03-28T22:35:57.799Z,2.10
2023-03-28T22:38:29.260Z,1.93
2023-03-28T22:41:01.271Z,1.90
2023-03-28T22:43:33.887Z,1.80
2023-03-28T22:46:05.749Z,1.80
2023-03-28T22:48:38.127Z,1.80
2023-03-28T22:51:12.169Z,1.90
2023-03-28T22:53:43.489Z,2.37
2023-03-28T22:56:14.803Z,2.03
2023-03-28T22:58:46.149Z,2.33
2023-03-28T23:01:17.483Z,2.40
2023-03-28T23:03:49.013Z,3.60
2023-03-28T23:06:20.453Z,2.47
2023-03-28T23:08:51.883Z,2.10
2023-03-28T23:11:23.203Z,1.83
2023-03-28T23:13:54.554Z,2.33
2023-03-28T23:16:26.322Z,1.80
2023-03-28T23:18:57.616Z,2.30
2023-03-28T23:21:30.839Z,1.90
2023-03-28T23:24:03.890Z,2.43
2023-03-28T23:26:35.438Z,2.93
2023-03-28T23:29:06.876Z,2.57
2023-03-28T23:31:38.351Z,3.53
2023-03-28T23:34:09.642Z,4.20
2023-03-28T23:36:45.923Z,3.20
2023-03-28T23:41:49.915Z,2.07
2023-03-28T23:44:21.611Z,2.57
2023-03-28T23:46:53.060Z,1.93
2023-03-28T23:49:24.373Z,1.90
2023-03-28T23:51:55.855Z,1.70
2023-03-28T23:54:29.794Z,2.40
2023-03-28T23:57:01.134Z,2.50
2023-03-28T23:59:32.879Z,1.70
